Time;durP1;ratioP1;P1;durP2;ratioP2;P2;SDS_P1;SDS_P2;PMS_P1;PMS_P2;Temp;Humidity;BMP_temperature;BMP_pressure;BME280_temperature;BME280_humidity;BME280_pressure;Samples;Min_cycle;Max_cycle;Signal;HPM_P1;HPM_P2
2021/05/22 00:01:46;;;;;;;;;0.67;0.67;;;;;22.64;36.75;100128.66;5080740;28;53705;-63
2021/05/22 00:04:12;;;;;;;;;2.00;2.00;;;;;22.63;37.02;100137.53;5080623;28;45457;-63
2021/05/22 00:06:37;;;;;;;;;3.00;1.00;;;;;22.63;36.81;100137.53;5080037;28;65211;-62
2021/05/22 00:09:04;;;;;;;;;2.00;2.00;;;;;22.61;37.18;100135.00;5082573;27;45262;-63
2021/05/22 00:11:29;;;;;;;;;0.00;0.00;;;;;22.60;36.91;100135.94;5081965;28;45358;-63
2021/05/22 00:13:56;;;;;;;;;1.67;1.67;;;;;22.60;36.98;100145.66;5060088;28;45381;-62
2021/05/22 00:16:22;;;;;;;;;1.00;1.00;;;;;22.58;37.10;100144.91;5073809;28;45184;-62
2021/05/22 00:18:47;;;;;;;;;2.67;0.67;;;;;22.58;37.22;100142.28;5065027;27;45189;-61
2021/05/22 00:21:13;;;;;;;;;3.00;2.00;;;;;22.58;37.09;100139.63;5061642;28;45612;-61
2021/05/22 00:23:39;;;;;;;;;1.67;1.67;;;;;22.57;37.02;100154.63;5067610;28;45318;-71
2021/05/22 00:26:04;;;;;;;;;1.33;1.00;;;;;22.56;36.94;100139.69;5052714;28;45401;-72
2021/05/22 00:28:30;;;;;;;;;3.00;1.00;;;;;22.55;37.00;100138.00;5060582;28;45473;-71
2021/05/22 00:30:55;;;;;;;;;3.00;2.00;;;;;22.56;37.40;100130.94;5051715;28;45406;-64
2021/05/22 00:33:21;;;;;;;;;0.33;0.33;;;;;22.54;36.99;100131.00;5061580;28;45409;-65
2021/05/22 00:35:46;;;;;;;;;3.33;0.33;;;;;22.53;36.96;100130.19;5073563;28;45322;-65
2021/05/22 00:38:12;;;;;;;;;4.00;1.67;;;;;22.53;36.66;100132.81;5081433;27;46001;-65
2021/05/22 00:40:37;;;;;;;;;1.33;1.00;;;;;22.53;37.09;100134.63;5081601;27;45979;-65
2021/05/22 00:43:03;;;;;;;;;3.00;0.00;;;;;22.52;36.92;100130.28;5061565;28;45354;-65
2021/05/22 00:45:28;;;;;;;;;2.00;2.00;;;;;22.51;37.22;100129.41;5063716;28;45350;-65
2021/05/22 00:47:55;;;;;;;;;1.00;1.00;;;;;22.50;37.12;100114.50;5061770;28;45197;-61
2021/05/22 00:50:25;;;;;;;;;2.00;2.00;;;;;22.50;37.04;100127.72;5080426;28;45843;-60
2021/05/22 00:52:52;;;;;;;;;2.00;1.00;;;;;22.50;37.03;100121.59;5069638;28;45323;-65
2021/05/22 00:55:17;;;;;;;;;0.67;0.67;;;;;22.48;37.11;100132.25;5083999;28;45428;-66
2021/05/22 00:57:43;;;;;;;;;0.67;0.67;;;;;22.48;37.12;100120.84;5083697;27;45573;-66
2021/05/22 01:00:12;;;;;;;;;2.00;0.00;;;;;22.47;36.98;100125.25;5084839;27;45982;-66
2021/05/22 01:02:38;;;;;;;;;2.33;2.00;;;;;22.47;37.41;100116.50;5083588;28;45410;-65
2021/05/22 01:05:05;;;;;;;;;1.00;1.00;;;;;22.46;36.69;100115.63;5085054;28;45281;-65
2021/05/22 01:07:31;;;;;;;;;1.67;1.00;;;;;22.46;36.93;100122.72;5085068;27;45540;-60
2021/05/22 01:09:57;;;;;;;;;1.00;1.00;;;;;22.45;37.13;100113.09;5084801;27;46358;-60
2021/05/22 01:12:27;;;;;;;;;2.67;2.00;;;;;22.44;36.92;100120.19;5063221;28;45259;-60
2021/05/22 01:15:11;;;;;;;;;1.00;1.00;;;;;22.44;37.14;100122.81;5076534;28;45418;-61
2021/05/22 01:17:39;;;;;;;;;0.33;0.33;;;;;22.43;36.85;100117.63;5076965;28;45381;-61
2021/05/22 01:20:29;;;;;;;;;1.00;1.00;;;;;22.43;36.99;100115.84;5062873;28;45352;-61
2021/05/22 01:23:01;;;;;;;;;1.00;1.00;;;;;22.42;37.03;100113.25;5068821;28;45254;-59
2021/05/22 01:25:29;;;;;;;;;0.67;0.67;;;;;22.42;37.28;100116.78;5063051;28;45370;-60
2021/05/22 01:27:56;;;;;;;;;1.33;1.33;;;;;22.41;36.98;100114.19;5064451;28;45306;-60
2021/05/22 01:30:21;;;;;;;;;0.67;0.67;;;;;22.39;37.24;100103.72;5063979;28;46953;-63
2021/05/22 01:32:47;;;;;;;;;1.00;1.00;;;;;22.38;36.84;100117.88;5063661;28;50931;-64
2021/05/22 01:35:14;;;;;;;;;2.00;2.00;;;;;22.38;37.30;100104.66;5064201;28;45273;-64
2021/05/22 01:37:39;;;;;;;;;0.00;0.00;;;;;22.37;36.76;100114.38;5064465;28;45247;-63
2021/05/22 01:40:06;;;;;;;;;0.67;0.67;;;;;22.35;36.79;100108.34;5069707;28;45878;-63
2021/05/22 01:42:32;;;;;;;;;1.67;1.67;;;;;22.35;36.49;100113.63;5070543;27;45504;-63
2021/05/22 01:44:59;;;;;;;;;2.00;1.00;;;;;22.35;37.10;100113.63;5064031;28;45548;-63
2021/05/22 01:47:26;;;;;;;;;0.00;0.00;;;;;22.35;36.99;100104.84;5063074;28;45312;-63
2021/05/22 01:49:51;;;;;;;;;2.00;0.33;;;;;22.35;37.41;100102.19;5063857;28;45266;-61
2021/05/22 01:52:18;;;;;;;;;1.00;1.00;;;;;22.34;37.36;100105.78;5063200;27;45364;-62
2021/05/22 01:54:43;;;;;;;;;1.00;1.00;;;;;22.33;36.98;100104.06;5082935;28;45491;-62
2021/05/22 01:57:12;;;;;;;;;3.00;1.00;;;;;22.32;37.31;100111.16;5082182;28;52836;-62
2021/05/22 01:59:38;;;;;;;;;0.33;0.33;;;;;22.31;37.04;100109.47;5074764;28;47947;-60
2021/05/22 02:02:03;;;;;;;;;1.00;1.00;;;;;22.32;37.52;100102.38;5063528;28;45248;-60
2021/05/22 02:04:31;;;;;;;;;1.00;1.00;;;;;22.32;36.70;100102.38;5083607;27;51260;-60
2021/05/22 02:06:58;;;;;;;;;0.00;0.00;;;;;22.30;37.31;100097.19;5084169;27;45489;-60
2021/05/22 02:09:23;;;;;;;;;1.33;1.33;;;;;22.30;37.15;100105.13;5082190;28;59761;-61
2021/05/22 02:11:50;;;;;;;;;1.00;1.00;;;;;22.29;37.15;100100.78;5083690;27;45385;-60
2021/05/22 02:14:21;;;;;;;;;0.67;0.67;;;;;22.30;37.40;100094.56;5083970;27;45444;-60
2021/05/22 02:16:51;;;;;;;;;1.00;1.00;;;;;22.28;37.27;100096.44;5052133;28;45509;-60
2021/05/22 02:19:19;;;;;;;;;1.00;1.00;;;;;22.28;37.00;100087.66;5062249;28;45505;-60
2021/05/22 02:21:45;;;;;;;;;1.00;1.00;;;;;22.27;37.23;100097.38;5078480;28;45266;-60
2021/05/22 02:24:18;;;;;;;;;1.00;1.00;;;;;22.28;36.86;100095.59;5073125;28;45338;-61
2021/05/22 02:26:44;;;;;;;;;3.00;0.33;;;;;22.26;37.09;100093.03;5062474;28;45593;-60
2021/05/22 02:29:16;;;;;;;;;0.67;0.67;;;;;22.27;37.17;100091.25;5082242;28;46183;-60
2021/05/22 02:31:44;;;;;;;;;1.00;0.67;;;;;22.26;37.12;100092.19;5081918;28;45334;-60
2021/05/22 02:34:09;;;;;;;;;1.00;1.00;;;;;22.25;37.11;100098.41;5082383;28;45215;-60
2021/05/22 02:36:36;;;;;;;;;1.33;1.00;;;;;22.24;37.32;100092.28;5083465;27;45600;-62
2021/05/22 02:39:04;;;;;;;;;1.00;1.00;;;;;22.23;36.93;100090.59;5083372;27;45446;-62
2021/05/22 02:41:30;;;;;;;;;1.33;1.33;;;;;22.22;37.34;100086.25;5065057;28;45380;-62
2021/05/22 02:43:56;;;;;;;;;4.00;1.67;;;;;22.22;37.17;100081.81;5061866;28;45370;-62
2021/05/22 02:46:23;;;;;;;;;1.00;0.00;;;;;22.22;37.62;100094.19;5061783;28;45658;-63
2021/05/22 02:48:51;;;;;;;;;2.33;1.00;;;;;22.21;37.06;100080.09;5061600;28;46621;-62
2021/05/22 02:51:20;;;;;;;;;2.67;1.33;;;;;22.21;37.39;100079.28;5061557;28;45296;-62
2021/05/22 02:53:45;;;;;;;;;1.00;1.00;;;;;22.20;37.54;100078.41;5074723;27;45271;-61
2021/05/22 02:56:12;;;;;;;;;1.00;1.00;;;;;22.20;37.39;100077.56;5081962;28;45395;-59
2021/05/22 02:58:40;;;;;;;;;0.67;0.67;;;;;22.20;37.44;100088.97;5082020;28;46038;-58
2021/05/22 03:01:05;;;;;;;;;0.67;0.67;;;;;22.18;37.09;100088.22;5082661;27;45226;-58
2021/05/22 03:03:31;;;;;;;;;1.00;1.00;;;;;22.19;36.97;100092.56;5081939;28;45362;-60
2021/05/22 03:06:00;;;;;;;;;0.00;0.00;;;;;22.19;37.33;100087.28;5061213;28;45651;-59
2021/05/22 03:08:27;;;;;;;;;2.33;1.00;;;;;22.18;36.97;100098.78;5075858;28;45353;-60
2021/05/22 03:10:54;;;;;;;;;1.33;1.33;;;;;22.18;37.34;100090.03;5081711;28;45278;-61
2021/05/22 03:13:20;;;;;;;;;0.00;0.00;;;;;22.18;37.28;100095.31;5083078;27;45250;-60
2021/05/22 03:15:45;;;;;;;;;0.00;0.00;;;;;22.17;37.38;100096.25;5081621;28;45383;-59
2021/05/22 03:18:11;;;;;;;;;0.33;0.33;;;;;22.17;37.27;100090.97;5070423;28;59822;-59
2021/05/22 03:20:36;;;;;;;;;2.00;1.00;;;;;22.16;37.40;100087.47;5061148;28;45328;-60
2021/05/22 03:23:02;;;;;;;;;1.00;1.00;;;;;22.16;37.14;100095.38;5074318;28;48124;-62
2021/05/22 03:25:27;;;;;;;;;2.00;1.67;;;;;22.15;37.43;100095.50;5062462;28;45381;-62
2021/05/22 03:27:53;;;;;;;;;1.00;1.00;;;;;22.16;37.21;100094.53;5062281;28;46147;-63
2021/05/22 03:30:19;;;;;;;;;0.67;0.67;;;;;22.15;37.27;100090.19;5060859;28;45302;-63
2021/05/22 03:32:44;;;;;;;;;1.00;1.00;;;;;22.15;37.16;100079.63;5075990;28;45369;-62
2021/05/22 03:35:10;;;;;;;;;0.00;0.00;;;;;22.14;37.07;100094.66;5081778;28;45250;-63
2021/05/22 03:37:35;;;;;;;;;1.00;1.00;;;;;22.14;37.47;100097.28;5082296;27;46032;-63
2021/05/22 03:40:01;;;;;;;;;2.00;2.00;;;;;22.14;37.43;100085.84;5082167;27;56701;-63
2021/05/22 03:42:27;;;;;;;;;1.00;1.00;;;;;22.12;37.15;100088.59;5050896;28;45504;-62
2021/05/22 03:44:52;;;;;;;;;1.00;1.00;;;;;22.13;37.49;100092.09;5061111;28;45509;-62
2021/05/22 03:47:18;;;;;;;;;2.00;2.00;;;;;22.11;37.35;100092.19;5075273;28;51413;-62
2021/05/22 03:49:43;;;;;;;;;0.67;0.67;;;;;22.11;37.20;100091.31;5081399;28;45268;-62
2021/05/22 03:52:08;;;;;;;;;0.00;0.00;;;;;22.11;37.25;100089.53;5081954;28;54835;-63
2021/05/22 03:54:34;;;;;;;;;0.00;0.00;;;;;22.10;37.54;100085.22;5081308;28;45591;-63
2021/05/22 03:56:59;;;;;;;;;1.00;1.00;;;;;22.09;37.58;100086.16;5079946;28;68285;-57
2021/05/22 03:59:24;;;;;;;;;1.33;1.00;;;;;22.08;37.16;100090.56;5082113;27;45212;-60
2021/05/22 04:01:50;;;;;;;;;0.00;0.00;;;;;22.08;37.40;100087.91;5082357;28;45234;-61
2021/05/22 04:04:15;;;;;;;;;3.00;3.00;;;;;22.08;37.63;100095.84;5082607;27;45230;-60
2021/05/22 04:06:40;;;;;;;;;0.67;0.67;;;;;22.08;37.44;100093.19;5081651;28;61049;-60
2021/05/22 04:09:06;;;;;;;;;1.00;1.00;;;;;22.08;37.56;100103.78;5082158;27;45227;-60
2021/05/22 04:11:31;;;;;;;;;4.00;1.00;;;;;22.08;37.47;100110.88;5082228;28;45238;-59
2021/05/22 04:13:57;;;;;;;;;1.00;0.00;;;;;22.07;37.51;100109.16;5082454;27;45174;-58
2021/05/22 04:16:22;;;;;;;;;1.00;1.00;;;;;22.07;37.61;100109.16;5080371;28;51278;-58
2021/05/22 04:18:48;;;;;;;;;2.00;2.00;;;;;22.05;37.31;100117.19;5066004;28;45184;-59
2021/05/22 04:21:13;;;;;;;;;4.00;1.67;;;;;22.06;37.67;100123.31;5064829;28;61055;-60
2021/05/22 04:23:40;;;;;;;;;2.00;2.00;;;;;22.05;37.47;100119.84;5060841;28;45326;-60
2021/05/22 04:26:05;;;;;;;;;1.00;1.00;;;;;22.04;37.28;100115.50;5077500;28;46199;-60
2021/05/22 04:28:31;;;;;;;;;0.67;0.67;;;;;22.04;37.28;100123.41;5047970;28;45402;-60
2021/05/22 04:30:56;;;;;;;;;1.00;0.33;;;;;22.03;37.37;100128.78;5077349;28;45252;-59
2021/05/22 04:33:21;;;;;;;;;0.00;0.00;;;;;22.02;37.55;100130.59;5085462;27;45251;-60
2021/05/22 04:35:47;;;;;;;;;1.00;1.00;;;;;22.01;37.14;100126.22;5085530;27;45350;-59
2021/05/22 04:38:12;;;;;;;;;1.33;0.00;;;;;22.00;37.69;100140.38;5084743;27;56687;-63
2021/05/22 04:40:38;;;;;;;;;2.00;1.00;;;;;22.00;37.59;100134.25;5085578;28;45310;-63
2021/05/22 04:43:03;;;;;;;;;2.00;1.00;;;;;21.99;37.37;100130.75;5085465;27;45239;-61
2021/05/22 04:45:29;;;;;;;;;1.00;1.00;;;;;22.00;37.49;100135.09;5083303;28;61885;-60
2021/05/22 04:47:54;;;;;;;;;1.00;1.00;;;;;22.00;37.24;100136.91;5085231;27;45409;-60
2021/05/22 04:50:20;;;;;;;;;2.00;0.00;;;;;21.99;37.56;100127.28;5085401;28;45335;-60
2021/05/22 04:52:45;;;;;;;;;2.00;0.33;;;;;21.99;37.41;100146.59;5069278;27;45253;-60
2021/05/22 04:55:11;;;;;;;;;2.00;1.00;;;;;21.98;37.55;100144.91;5073704;27;54742;-60
2021/05/22 04:57:37;;;;;;;;;1.00;1.00;;;;;21.98;37.43;100141.44;5081251;28;45273;-60
2021/05/22 05:00:04;;;;;;;;;2.33;1.00;;;;;21.97;37.60;100140.56;5073847;28;45295;-61
2021/05/22 05:02:30;;;;;;;;;2.00;1.00;;;;;21.97;37.62;100140.56;5065395;28;45330;-62
2021/05/22 05:04:55;;;;;;;;;2.67;1.00;;;;;21.97;37.26;100143.19;5064193;28;55043;-63
2021/05/22 05:07:21;;;;;;;;;1.00;1.00;;;;;21.96;37.67;100152.06;5063540;28;45453;-63
2021/05/22 05:09:50;;;;;;;;;2.33;1.00;;;;;21.96;37.75;100148.59;5064312;28;45370;-63
2021/05/22 05:12:21;;;;;;;;;2.00;1.00;;;;;21.96;37.48;100148.59;5063629;28;45438;-65
2021/05/22 05:14:47;;;;;;;;;1.00;1.00;;;;;21.95;37.64;100157.44;5063174;28;46038;-62
2021/05/22 05:17:13;;;;;;;;;0.67;0.67;;;;;21.95;37.35;100147.72;5064685;28;45482;-62
2021/05/22 05:19:38;;;;;;;;;1.00;1.00;;;;;21.94;37.71;100156.59;5072125;27;45253;-61
2021/05/22 05:22:04;;;;;;;;;1.67;1.67;;;;;21.94;37.71;100156.59;5046509;28;45649;-62
2021/05/22 05:24:29;;;;;;;;;4.00;1.67;;;;;21.93;37.29;100145.19;5071306;28;48801;-63
2021/05/22 05:26:55;;;;;;;;;1.67;1.67;;;;;21.94;37.10;100159.22;5062960;28;45240;-63
2021/05/22 05:29:20;;;;;;;;;1.67;1.00;;;;;21.92;37.72;100161.97;5045863;28;45418;-63
2021/05/22 05:31:45;;;;;;;;;1.00;1.00;;;;;21.91;37.33;100165.56;5063359;28;45339;-63
2021/05/22 05:34:11;;;;;;;;;1.00;1.00;;;;;21.92;37.86;100167.25;5062851;28;46467;-59
2021/05/22 05:36:37;;;;;;;;;1.33;1.33;;;;;21.92;37.53;100172.53;5060629;28;45282;-62
2021/05/22 05:39:04;;;;;;;;;2.67;1.00;;;;;21.92;37.38;100169.91;5063109;28;45342;-62
2021/05/22 05:41:29;;;;;;;;;3.00;1.00;;;;;21.91;37.42;100175.28;5046245;28;45366;-62
2021/05/22 05:43:54;;;;;;;;;4.00;2.00;;;;;21.90;37.59;100174.41;5070474;28;47210;-62
2021/05/22 05:46:20;;;;;;;;;1.00;1.00;;;;;21.91;37.65;100185.84;5063518;28;49012;-62
2021/05/22 05:48:45;;;;;;;;;1.00;1.00;;;;;21.90;37.64;100177.06;5063864;28;47585;-62
2021/05/22 05:51:10;;;;;;;;;2.33;2.00;;;;;21.90;37.57;100179.69;5062989;28;45319;-62
2021/05/22 05:53:36;;;;;;;;;1.00;1.00;;;;;21.90;37.53;100192.91;5075331;27;45685;-63
2021/05/22 05:56:02;;;;;;;;;1.00;1.00;;;;;21.91;37.36;100188.50;5083970;28;45351;-62
2021/05/22 05:58:28;;;;;;;;;2.00;2.00;;;;;21.90;37.40;100198.19;5082878;28;45338;-62
2021/05/22 06:00:53;;;;;;;;;0.67;0.67;;;;;21.89;37.34;100193.84;5082760;28;45283;-63
2021/05/22 06:03:29;;;;;;;;;3.00;1.00;;;;;21.89;37.37;100188.56;5083920;27;45168;-63
2021/05/22 06:05:56;;;;;;;;;1.33;1.33;;;;;21.90;37.36;100195.53;5082474;28;45466;-62
2021/05/22 06:08:21;;;;;;;;;1.00;0.00;;;;;21.89;37.67;100191.19;5062549;28;45274;-62
2021/05/22 06:10:49;;;;;;;;;1.00;1.00;;;;;21.89;37.41;100196.47;5083357;28;45320;-62
2021/05/22 06:13:22;;;;;;;;;2.00;1.00;;;;;21.89;37.50;100193.84;5084198;27;46191;-70
2021/05/22 06:15:50;;;;;;;;;1.00;1.00;;;;;21.89;37.65;100208.84;5083723;27;45245;-66
2021/05/22 06:18:15;;;;;;;;;2.33;2.33;;;;;21.89;37.74;100203.56;5071398;27;45245;-67
2021/05/22 06:20:40;;;;;;;;;2.00;2.00;;;;;21.88;37.31;100202.72;5063853;28;45260;-63
2021/05/22 06:23:06;;;;;;;;;2.00;2.00;;;;;21.89;37.64;100212.34;5068983;28;45356;-62
2021/05/22 06:25:31;;;;;;;;;0.33;0.33;;;;;21.90;37.11;100215.84;5062634;28;61765;-62
2021/05/22 06:27:56;;;;;;;;;1.00;1.00;;;;;21.89;37.54;100219.41;5063007;28;45370;-62
2021/05/22 06:30:22;;;;;;;;;3.00;1.67;;;;;21.89;37.63;100219.41;5063158;28;45325;-61
2021/05/22 06:32:47;;;;;;;;;2.00;2.00;;;;;21.89;37.41;100227.34;5062087;28;47149;-64
2021/05/22 06:35:13;;;;;;;;;3.00;1.00;;;;;21.88;37.38;100228.28;5062005;28;45345;-61
2021/05/22 06:37:38;;;;;;;;;1.33;1.33;;;;;21.89;37.45;100224.69;5063542;28;45243;-62
2021/05/22 06:40:05;;;;;;;;;2.00;2.00;;;;;21.89;37.32;100230.00;5062073;28;45544;-61
2021/05/22 06:42:32;;;;;;;;;0.67;0.67;;;;;21.89;37.57;100236.09;5062186;28;46202;-65
2021/05/22 06:45:03;;;;;;;;;0.00;0.00;;;;;21.89;37.46;100224.69;5062935;28;45374;-65
2021/05/22 06:47:28;;;;;;;;;3.00;1.33;;;;;21.89;37.39;100228.19;5063450;28;45248;-64
2021/05/22 06:49:54;;;;;;;;;0.00;0.00;;;;;21.88;37.81;100242.31;5062127;28;45301;-65
2021/05/22 06:52:19;;;;;;;;;1.00;1.00;;;;;21.88;37.80;100233.56;5045336;27;46652;-65
2021/05/22 06:54:46;;;;;;;;;2.00;2.00;;;;;21.88;37.49;100244.97;5083781;28;45288;-64
2021/05/22 06:57:12;;;;;;;;;1.67;1.67;;;;;21.87;37.67;100235.34;5084426;28;48859;-66
2021/05/22 06:59:39;;;;;;;;;1.33;1.33;;;;;21.88;37.37;100242.31;5084299;27;45242;-62
2021/05/22 07:02:08;;;;;;;;;1.00;1.00;;;;;21.87;37.36;100245.91;5082127;28;47476;-63
2021/05/22 07:04:33;;;;;;;;;1.67;1.67;;;;;21.88;37.43;100244.97;5083280;27;45285;-59
2021/05/22 07:06:58;;;;;;;;;2.33;1.67;;;;;21.87;37.53;100248.53;5082934;27;45283;-58
2021/05/22 07:09:24;;;;;;;;;4.00;1.67;;;;;21.88;37.66;100254.69;5083579;28;45275;-62
2021/05/22 07:11:49;;;;;;;;;1.33;1.00;;;;;21.88;37.84;100252.06;5082892;27;45944;-62
2021/05/22 07:14:15;;;;;;;;;1.67;1.67;;;;;21.87;37.80;100237.16;5073530;28;45671;-62
2021/05/22 07:16:40;;;;;;;;;1.00;1.00;;;;;21.88;37.38;100259.97;5062304;28;45237;-62
2021/05/22 07:19:05;;;;;;;;;1.33;1.00;;;;;21.87;37.47;100260.91;5063691;28;45217;-64
2021/05/22 07:21:32;;;;;;;;;2.00;2.00;;;;;21.88;37.58;100267.91;5060964;28;47551;-63
2021/05/22 07:23:57;;;;;;;;;2.33;2.33;;;;;21.87;37.71;100271.47;5067870;28;45404;-63
2021/05/22 07:26:23;;;;;;;;;2.00;0.00;;;;;21.87;37.49;100285.53;5055267;28;45261;-61
2021/05/22 07:28:48;;;;;;;;;1.00;1.00;;;;;21.89;38.02;100269.59;5062841;28;45340;-59
2021/05/22 07:31:14;;;;;;;;;1.00;1.00;;;;;21.91;37.47;100276.50;5061798;28;46999;-62
2021/05/22 07:33:41;;;;;;;;;1.67;1.67;;;;;21.96;37.45;100285.97;5062496;28;45450;-63
2021/05/22 07:36:08;;;;;;;;;2.00;2.00;;;;;21.97;37.53;100288.50;5061034;28;45414;-62
2021/05/22 07:38:35;;;;;;;;;1.00;1.00;;;;;21.99;37.77;100293.72;5062683;28;45232;-60
2021/05/22 07:41:01;;;;;;;;;1.00;1.00;;;;;21.99;37.34;100294.56;5043952;28;48379;-59
2021/05/22 07:43:27;;;;;;;;;4.33;3.00;;;;;22.01;37.92;100297.97;5062187;28;45266;-60
2021/05/22 07:45:56;;;;;;;;;1.00;1.00;;;;;22.02;37.81;100304.94;5060675;28;45233;-59
2021/05/22 07:48:22;;;;;;;;;2.67;1.00;;;;;22.03;37.85;100309.28;5069432;28;45462;-58
2021/05/22 07:50:47;;;;;;;;;3.00;2.67;;;;;22.06;38.02;100313.53;5070091;28;45364;-57
2021/05/22 07:53:13;;;;;;;;;0.67;0.67;;;;;22.07;37.51;100325.81;5076644;27;45257;-57
2021/05/22 07:55:38;;;;;;;;;1.33;1.33;;;;;22.07;37.70;100317.88;5077161;28;45872;-58
2021/05/22 07:58:03;;;;;;;;;4.00;1.33;;;;;22.08;37.53;100332.81;5073030;27;49712;-58
2021/05/22 08:00:29;;;;;;;;;3.00;1.67;;;;;22.09;37.66;100329.22;5063205;28;63976;-59
2021/05/22 08:02:54;;;;;;;;;3.33;1.67;;;;;22.09;37.54;100321.31;5079947;27;58437;-57
2021/05/22 08:05:19;;;;;;;;;1.00;1.00;;;;;22.08;37.38;100320.44;5079917;28;45507;-56
2021/05/22 08:07:45;;;;;;;;;1.67;1.67;;;;;22.09;36.92;100329.22;5080548;28;45460;-58
2021/05/22 08:10:11;;;;;;;;;1.67;1.67;;;;;22.08;37.10;100333.66;5080605;28;47222;-58
2021/05/22 08:12:37;;;;;;;;;2.00;1.33;;;;;22.10;37.13;100324.78;5082229;27;45246;-56
2021/05/22 08:15:05;;;;;;;;;1.33;0.67;;;;;22.08;37.28;100327.53;5066982;28;45338;-55
2021/05/22 08:17:30;;;;;;;;;2.00;1.33;;;;;22.07;37.56;100331.97;5074598;28;45498;-57
2021/05/22 08:19:56;;;;;;;;;1.67;1.67;;;;;22.08;37.38;100324.88;5061599;28;46143;-56
2021/05/22 08:22:21;;;;;;;;;1.33;1.33;;;;;22.07;37.67;100336.38;5062911;28;45255;-55
2021/05/22 08:24:47;;;;;;;;;2.00;1.00;;;;;22.06;37.63;100338.19;5067331;27;45442;-59
2021/05/22 08:27:12;;;;;;;;;1.00;1.00;;;;;22.07;37.14;100328.47;5070895;28;45497;-57
2021/05/22 08:29:38;;;;;;;;;1.33;1.33;;;;;22.07;37.33;100336.38;5060161;28;46158;-56
2021/05/22 08:32:04;;;;;;;;;4.00;2.00;;;;;22.07;37.15;100347.81;5060465;28;45449;-57
2021/05/22 08:34:29;;;;;;;;;2.33;2.00;;;;;22.08;37.19;100338.09;5042270;28;45296;-56
2021/05/22 08:36:55;;;;;;;;;5.00;4.00;;;;;22.09;37.43;100345.09;5063057;28;45398;-53
2021/05/22 08:39:21;;;;;;;;;2.33;1.33;;;;;22.11;37.04;100344.97;5071789;28;45517;-58
2021/05/22 08:41:49;;;;;;;;;2.00;2.00;;;;;22.11;37.33;100343.22;5059413;28;45232;-56
2021/05/22 08:44:14;;;;;;;;;3.67;2.00;;;;;22.11;37.06;100337.94;5060020;28;45316;-54
2021/05/22 08:46:40;;;;;;;;;2.00;1.00;;;;;22.12;37.26;100341.41;5061339;28;47377;-56
2021/05/22 08:49:06;;;;;;;;;1.67;1.67;;;;;22.12;37.46;100344.91;5061295;28;45724;-53
2021/05/22 08:51:32;;;;;;;;;2.33;2.00;;;;;22.12;37.22;100351.97;5069712;28;45436;-56
2021/05/22 08:53:58;;;;;;;;;1.00;1.00;;;;;22.13;37.29;100351.03;5059017;28;45299;-53
2021/05/22 08:56:23;;;;;;;;;3.00;3.00;;;;;22.12;37.10;100344.91;5081323;28;45514;-55
2021/05/22 08:58:50;;;;;;;;;1.67;1.00;;;;;22.13;37.03;100351.03;5077767;28;45241;-56
2021/05/22 09:01:16;;;;;;;;;2.50;2.50;;;;;22.10;37.09;100352.06;5060834;28;45298;-56
2021/05/22 09:03:44;;;;;;;;;1.33;1.00;;;;;22.11;37.26;100360.84;5061105;28;45231;-56
2021/05/22 09:06:09;;;;;;;;;2.33;2.33;;;;;22.11;37.43;100359.06;5071270;28;45421;-55
2021/05/22 09:08:35;;;;;;;;;1.33;0.67;;;;;22.12;37.09;100367.81;5068701;28;46068;-56
2021/05/22 09:11:04;;;;;;;;;2.67;2.33;;;;;22.12;37.65;100367.81;5064549;28;45358;-57
2021/05/22 09:13:31;;;;;;;;;1.67;1.67;;;;;22.11;37.37;100359.06;5063491;28;45223;-57
2021/05/22 09:16:02;;;;;;;;;1.00;0.67;;;;;22.11;36.78;100359.06;5046321;28;45503;-56
2021/05/22 09:18:39;;;;;;;;;2.33;2.33;;;;;22.12;37.43;100359.91;5066713;28;48641;-57
2021/05/22 09:21:08;;;;;;;;;1.00;1.00;;;;;22.10;37.01;100361.78;5082930;28;45373;-57
2021/05/22 09:23:39;;;;;;;;;2.33;2.33;;;;;22.09;37.20;100360.94;5079391;28;45437;-54
2021/05/22 09:26:07;;;;;;;;;4.67;3.33;;;;;22.09;37.58;100376.78;5073754;28;45656;-53
2021/05/22 09:28:35;;;;;;;;;2.00;2.00;;;;;22.09;37.61;100374.16;5077973;28;46156;-51
2021/05/22 09:31:02;;;;;;;;;3.00;1.00;;;;;22.08;37.69;100370.63;5063683;28;45299;-52
2021/05/22 09:33:30;;;;;;;;;1.33;1.33;;;;;22.10;38.06;100378.50;5067815;28;45507;-57
2021/05/22 09:36:08;;;;;;;;;2.33;2.33;;;;;22.11;37.93;100363.47;5072664;28;45451;-54
2021/05/22 09:38:43;;;;;;;;;3.67;3.67;;;;;22.12;37.70;100378.41;5072382;28;46218;-55
2021/05/22 09:41:26;;;;;;;;;2.67;1.67;;;;;22.13;37.49;100385.38;5071755;28;44780;-55
2021/05/22 09:44:11;;;;;;;;;1.67;0.67;;;;;22.13;37.34;100378.34;5068031;28;45263;-55
2021/05/22 09:46:46;;;;;;;;;1.33;1.33;;;;;22.14;37.71;100374.75;5066990;28;45243;-55
2021/05/22 09:49:26;;;;;;;;;2.00;2.00;;;;;22.15;37.43;100375.59;5070562;28;45461;-55
2021/05/22 09:52:09;;;;;;;;;2.67;1.67;;;;;22.14;37.41;100372.09;5073527;27;45467;-55
2021/05/22 09:54:54;;;;;;;;;2.67;2.00;;;;;22.14;37.49;100374.75;5079029;28;45255;-57
2021/05/22 09:57:21;;;;;;;;;1.33;1.33;;;;;22.14;37.21;100365.97;5077879;28;45465;-56
2021/05/22 10:00:08;;;;;;;;;1.67;1.67;;;;;22.14;37.30;100369.47;5066436;28;45257;-57
2021/05/22 10:02:39;;;;;;;;;4.33;2.33;;;;;22.13;37.36;100373.03;5063387;28;45401;-58
2021/05/22 10:05:19;;;;;;;;;3.00;1.00;;;;;22.13;37.16;100362.47;5063724;28;45310;-57
2021/05/22 10:07:46;;;;;;;;;2.00;2.00;;;;;22.15;37.71;100375.59;5069188;28;45225;-56
2021/05/22 10:10:13;;;;;;;;;3.33;1.00;;;;;22.16;37.08;100364.91;5071204;28;46198;-56
2021/05/22 10:12:40;;;;;;;;;2.33;2.33;;;;;22.18;37.47;100364.84;5072642;28;45318;-56
2021/05/22 10:15:07;;;;;;;;;2.67;2.67;;;;;22.18;37.21;100363.03;5077733;28;45741;-56
2021/05/22 10:17:33;;;;;;;;;2.33;0.67;;;;;22.19;37.16;100353.34;5065027;28;45258;-57
2021/05/22 10:19:59;;;;;;;;;2.33;1.67;;;;;22.19;37.37;100359.47;5062086;28;45406;-56
2021/05/22 10:22:24;;;;;;;;;2.33;1.00;;;;;22.21;37.56;100377.91;5064855;28;45227;-58
2021/05/22 10:24:52;;;;;;;;;1.00;1.00;;;;;22.21;37.29;100370.81;5068718;28;45315;-58
2021/05/22 10:27:20;;;;;;;;;2.67;2.67;;;;;22.21;37.07;100377.91;5083995;27;45500;-58
2021/05/22 10:29:46;;;;;;;;;3.00;1.67;;;;;22.20;37.25;100377.03;5083162;27;45586;-55
2021/05/22 10:32:22;;;;;;;;;1.00;1.00;;;;;22.22;37.19;100387.53;5082539;28;45547;-56
2021/05/22 10:34:49;;;;;;;;;2.67;1.00;;;;;22.22;37.12;100388.38;5083630;27;45336;-56
2021/05/22 10:37:46;;;;;;;;;3.00;1.67;;;;;22.22;37.16;100398.09;5075227;28;45634;-57
2021/05/22 10:40:22;;;;;;;;;1.67;1.67;;;;;22.22;36.99;100382.25;5067635;28;45461;-58
2021/05/22 10:42:56;;;;;;;;;2.00;2.00;;;;;22.21;36.99;100376.09;5062887;28;45275;-58
2021/05/22 10:45:39;;;;;;;;;1.33;1.33;;;;;22.22;36.95;100375.16;5062952;28;45399;-58
2021/05/22 10:48:06;;;;;;;;;2.00;2.00;;;;;22.22;37.16;100377.81;5063140;28;45529;-57
2021/05/22 10:50:36;;;;;;;;;0.67;0.67;;;;;22.23;37.11;100373.38;5073433;28;45472;-58
2021/05/22 10:53:19;;;;;;;;;2.00;2.00;;;;;22.23;36.85;100378.66;5076910;27;45308;-58
2021/05/22 10:55:45;;;;;;;;;0.67;0.67;;;;;22.23;37.27;100366.28;5066555;28;45394;-56
2021/05/22 10:58:13;;;;;;;;;1.67;0.67;;;;;22.25;37.05;100376.75;5062807;28;45469;-58
2021/05/22 11:00:39;;;;;;;;;0.67;0.67;;;;;22.26;37.21;100369.69;5061636;28;45508;-58
2021/05/22 11:03:20;;;;;;;;;3.33;0.67;;;;;22.27;36.66;100369.59;5063113;28;48834;-57
2021/05/22 11:05:45;;;;;;;;;2.00;1.67;;;;;22.29;36.97;100374.81;5063440;28;45474;-58
2021/05/22 11:08:11;;;;;;;;;1.33;0.67;;;;;22.29;36.77;100366.88;5073873;28;45456;-57
2021/05/22 11:10:51;;;;;;;;;1.33;1.33;;;;;22.29;37.07;100374.81;5076770;28;46821;-60
2021/05/22 11:13:27;;;;;;;;;1.67;1.67;;;;;22.29;36.91;100365.09;5061621;28;45296;-56
2021/05/22 11:15:55;;;;;;;;;2.00;1.00;;;;;22.29;36.63;100369.53;5075476;28;45415;-56
2021/05/22 11:18:50;;;;;;;;;1.67;1.67;;;;;22.30;36.82;100384.47;5068484;27;45460;-57
2021/05/22 11:21:24;;;;;;;;;1.00;1.00;;;;;22.31;36.28;100372.94;5071612;28;47020;-56
2021/05/22 11:24:03;;;;;;;;;2.33;2.00;;;;;22.31;36.61;100380.88;5076401;28;45316;-57
2021/05/22 11:26:57;;;;;;;;;2.67;2.67;;;;;22.31;36.62;100391.44;5070943;28;45228;-58